sensor_id;sensor_type;location;lat;lon;timestamp;temperature;humidity
27016;DHT22;14557;0.000;0.000;2023-05-27T00:01:44;24.50;57.60
27016;DHT22;14557;0.000;0.000;2023-05-27T00:04:12;24.50;57.40
27016;DHT22;14557;0.000;0.000;2023-05-27T00:06:37;24.50;57.50
27016;DHT22;14557;0.000;0.000;2023-05-27T00:09:03;24.50;57.60
27016;DHT22;14557;0.000;0.000;2023-05-27T00:11:29;24.50;57.60
27016;DHT22;14557;0.000;0.000;2023-05-27T00:13:55;24.50;57.50
27016;DHT22;14557;0.000;0.000;2023-05-27T00:16:20;24.40;57.40
27016;DHT22;14557;0.000;0.000;2023-05-27T00:18:46;24.40;57.50
27016;DHT22;14557;0.000;0.000;2023-05-27T00:21:12;24.40;57.40
27016;DHT22;14557;0.000;0.000;2023-05-27T00:23:38;24.40;57.40
27016;DHT22;14557;0.000;0.000;2023-05-27T00:26:04;24.50;57.40
27016;DHT22;14557;0.000;0.000;2023-05-27T00:28:29;24.40;57.30
27016;DHT22;14557;0.000;0.000;2023-05-27T00:30:57;24.40;57.10
27016;DHT22;14557;0.000;0.000;2023-05-27T00:33:22;24.40;57.00
27016;DHT22;14557;0.000;0.000;2023-05-27T00:35:48;24.40;57.20
27016;DHT22;14557;0.000;0.000;2023-05-27T00:38:14;24.40;57.10
27016;DHT22;14557;0.000;0.000;2023-05-27T00:40:39;24.30;57.00
27016;DHT22;14557;0.000;0.000;2023-05-27T00:43:06;24.30;56.90
27016;DHT22;14557;0.000;0.000;2023-05-27T00:45:31;24.30;56.80
27016;DHT22;14557;0.000;0.000;2023-05-27T00:47:57;24.30;56.80
27016;DHT22;14557;0.000;0.000;2023-05-27T00:50:23;24.30;56.80
27016;DHT22;14557;0.000;0.000;2023-05-27T00:52:50;24.30;56.90
27016;DHT22;14557;0.000;0.000;2023-05-27T00:55:16;24.30;56.80
27016;DHT22;14557;0.000;0.000;2023-05-27T00:57:42;24.20;56.80
27016;DHT22;14557;0.000;0.000;2023-05-27T01:00:09;24.30;56.90
27016;DHT22;14557;0.000;0.000;2023-05-27T01:02:35;24.20;56.80
27016;DHT22;14557;0.000;0.000;2023-05-27T01:05:01;24.20;56.80
27016;DHT22;14557;0.000;0.000;2023-05-27T01:10:35;24.20;56.70
27016;DHT22;14557;0.000;0.000;2023-05-27T01:13:01;24.20;56.80
27016;DHT22;14557;0.000;0.000;2023-05-27T01:15:29;24.20;56.90
27016;DHT22;14557;0.000;0.000;2023-05-27T01:17:56;24.20;56.90
27016;DHT22;14557;0.000;0.000;2023-05-27T01:20:26;24.20;56.90
27016;DHT22;14557;0.000;0.000;2023-05-27T01:22:52;24.20;56.80
27016;DHT22;14557;0.000;0.000;2023-05-27T01:25:18;24.20;56.80
27016;DHT22;14557;0.000;0.000;2023-05-27T01:27:47;24.20;56.70
27016;DHT22;14557;0.000;0.000;2023-05-27T01:30:12;24.20;56.70
27016;DHT22;14557;0.000;0.000;2023-05-27T01:35:29;24.20;56.70
27016;DHT22;14557;0.000;0.000;2023-05-27T01:37:56;24.20;56.60
27016;DHT22;14557;0.000;0.000;2023-05-27T01:40:24;24.10;56.50
27016;DHT22;14557;0.000;0.000;2023-05-27T01:42:50;24.20;56.50
27016;DHT22;14557;0.000;0.000;2023-05-27T01:45:16;24.10;56.40
27016;DHT22;14557;0.000;0.000;2023-05-27T01:47:44;24.10;56.20
27016;DHT22;14557;0.000;0.000;2023-05-27T01:50:13;24.00;56.10
27016;DHT22;14557;0.000;0.000;2023-05-27T01:52:38;24.00;56.00
27016;DHT22;14557;0.000;0.000;2023-05-27T01:55:04;24.00;55.90
27016;DHT22;14557;0.000;0.000;2023-05-27T01:57:30;24.00;55.80
27016;DHT22;14557;0.000;0.000;2023-05-27T01:59:56;24.00;55.80
27016;DHT22;14557;0.000;0.000;2023-05-27T02:02:21;24.00;55.80
27016;DHT22;14557;0.000;0.000;2023-05-27T02:04:47;24.00;55.80
27016;DHT22;14557;0.000;0.000;2023-05-27T02:07:13;24.00;55.80
27016;DHT22;14557;0.000;0.000;2023-05-27T02:09:38;24.00;56.40
27016;DHT22;14557;0.000;0.000;2023-05-27T02:12:04;24.00;55.70
27016;DHT22;14557;0.000;0.000;2023-05-27T02:14:30;23.90;55.60
27016;DHT22;14557;0.000;0.000;2023-05-27T02:16:56;24.00;55.60
27016;DHT22;14557;0.000;0.000;2023-05-27T02:19:23;23.90;55.60
27016;DHT22;14557;0.000;0.000;2023-05-27T02:21:50;23.90;55.50
27016;DHT22;14557;0.000;0.000;2023-05-27T02:24:16;23.90;55.40
27016;DHT22;14557;0.000;0.000;2023-05-27T02:26:41;23.90;55.50
27016;DHT22;14557;0.000;0.000;2023-05-27T02:29:07;23.90;55.50
27016;DHT22;14557;0.000;0.000;2023-05-27T02:31:32;23.90;55.50
27016;DHT22;14557;0.000;0.000;2023-05-27T02:33:58;23.90;55.40
27016;DHT22;14557;0.000;0.000;2023-05-27T02:36:23;23.80;55.50
27016;DHT22;14557;0.000;0.000;2023-05-27T02:38:50;23.80;55.30
27016;DHT22;14557;0.000;0.000;2023-05-27T02:41:15;23.80;55.30
27016;DHT22;14557;0.000;0.000;2023-05-27T02:43:41;23.80;55.40
27016;DHT22;14557;0.000;0.000;2023-05-27T02:46:07;23.90;55.30
27016;DHT22;14557;0.000;0.000;2023-05-27T02:48:32;23.80;55.30
27016;DHT22;14557;0.000;0.000;2023-05-27T02:50:58;23.80;55.30
27016;DHT22;14557;0.000;0.000;2023-05-27T02:53:23;23.80;55.20
27016;DHT22;14557;0.000;0.000;2023-05-27T02:55:49;23.80;55.20
27016;DHT22;14557;0.000;0.000;2023-05-27T02:58:15;23.80;55.20
27016;DHT22;14557;0.000;0.000;2023-05-27T03:00:40;23.80;55.20
27016;DHT22;14557;0.000;0.000;2023-05-27T03:03:06;23.70;55.10
27016;DHT22;14557;0.000;0.000;2023-05-27T03:05:33;23.80;55.20
27016;DHT22;14557;0.000;0.000;2023-05-27T03:07:59;23.80;55.20
27016;DHT22;14557;0.000;0.000;2023-05-27T03:10:25;23.70;55.20
27016;DHT22;14557;0.000;0.000;2023-05-27T03:12:53;23.80;55.20
27016;DHT22;14557;0.000;0.000;2023-05-27T03:15:18;23.70;55.20
27016;DHT22;14557;0.000;0.000;2023-05-27T03:17:44;23.70;55.30
27016;DHT22;14557;0.000;0.000;2023-05-27T03:20:10;23.70;55.20
27016;DHT22;14557;0.000;0.000;2023-05-27T03:22:36;23.70;55.40
27016;DHT22;14557;0.000;0.000;2023-05-27T03:25:02;23.70;55.40
27016;DHT22;14557;0.000;0.000;2023-05-27T03:27:28;23.70;55.40
27016;DHT22;14557;0.000;0.000;2023-05-27T03:29:53;23.70;55.40
27016;DHT22;14557;0.000;0.000;2023-05-27T03:32:19;23.70;55.40
27016;DHT22;14557;0.000;0.000;2023-05-27T03:34:45;23.70;55.20
27016;DHT22;14557;0.000;0.000;2023-05-27T03:37:10;23.70;56.30
27016;DHT22;14557;0.000;0.000;2023-05-27T03:39:36;23.60;55.50
27016;DHT22;14557;0.000;0.000;2023-05-27T03:42:01;23.60;55.80
27016;DHT22;14557;0.000;0.000;2023-05-27T03:44:27;23.60;55.70
27016;DHT22;14557;0.000;0.000;2023-05-27T03:46:53;23.60;55.60
27016;DHT22;14557;0.000;0.000;2023-05-27T03:49:18;23.60;55.60
27016;DHT22;14557;0.000;0.000;2023-05-27T03:51:44;23.50;55.50
27016;DHT22;14557;0.000;0.000;2023-05-27T03:54:09;23.50;55.50
27016;DHT22;14557;0.000;0.000;2023-05-27T03:56:35;23.50;55.50
27016;DHT22;14557;0.000;0.000;2023-05-27T03:59:00;23.50;55.50
27016;DHT22;14557;0.000;0.000;2023-05-27T04:01:26;23.50;55.40
27016;DHT22;14557;0.000;0.000;2023-05-27T04:03:53;23.50;55.30
27016;DHT22;14557;0.000;0.000;2023-05-27T04:06:18;23.50;55.30
27016;DHT22;14557;0.000;0.000;2023-05-27T04:08:44;23.50;55.80
27016;DHT22;14557;0.000;0.000;2023-05-27T04:11:10;23.50;55.20
27016;DHT22;14557;0.000;0.000;2023-05-27T04:13:36;23.50;55.20
27016;DHT22;14557;0.000;0.000;2023-05-27T04:16:01;23.50;55.20
27016;DHT22;14557;0.000;0.000;2023-05-27T04:18:27;23.50;55.20
27016;DHT22;14557;0.000;0.000;2023-05-27T04:20:52;23.40;55.10
27016;DHT22;14557;0.000;0.000;2023-05-27T04:23:18;23.50;55.20
27016;DHT22;14557;0.000;0.000;2023-05-27T04:25:44;23.50;55.30
27016;DHT22;14557;0.000;0.000;2023-05-27T04:28:09;23.40;55.10
27016;DHT22;14557;0.000;0.000;2023-05-27T04:30:35;23.40;55.10
27016;DHT22;14557;0.000;0.000;2023-05-27T04:33:04;23.40;55.10
27016;DHT22;14557;0.000;0.000;2023-05-27T04:35:30;23.40;55.00
27016;DHT22;14557;0.000;0.000;2023-05-27T04:37:56;23.30;55.00
27016;DHT22;14557;0.000;0.000;2023-05-27T04:40:22;23.30;55.00
27016;DHT22;14557;0.000;0.000;2023-05-27T04:42:47;23.30;55.00
27016;DHT22;14557;0.000;0.000;2023-05-27T04:45:13;23.30;55.10
27016;DHT22;14557;0.000;0.000;2023-05-27T04:47:39;23.30;55.10
27016;DHT22;14557;0.000;0.000;2023-05-27T04:50:06;23.30;55.10
27016;DHT22;14557;0.000;0.000;2023-05-27T04:52:33;23.30;55.10
27016;DHT22;14557;0.000;0.000;2023-05-27T04:55:05;23.20;55.00
27016;DHT22;14557;0.000;0.000;2023-05-27T04:57:31;23.20;55.00
27016;DHT22;14557;0.000;0.000;2023-05-27T04:59:58;23.20;55.00
27016;DHT22;14557;0.000;0.000;2023-05-27T05:02:30;23.20;55.00
27016;DHT22;14557;0.000;0.000;2023-05-27T05:05:04;23.20;55.00
27016;DHT22;14557;0.000;0.000;2023-05-27T05:07:30;23.20;55.00
27016;DHT22;14557;0.000;0.000;2023-05-27T05:09:56;23.20;57.60
27016;DHT22;14557;0.000;0.000;2023-05-27T05:12:22;23.20;56.10
27016;DHT22;14557;0.000;0.000;2023-05-27T05:14:48;23.20;56.50
27016;DHT22;14557;0.000;0.000;2023-05-27T05:17:13;23.30;56.20
27016;DHT22;14557;0.000;0.000;2023-05-27T05:19:39;23.20;55.90
27016;DHT22;14557;0.000;0.000;2023-05-27T05:22:05;23.20;55.60
27016;DHT22;14557;0.000;0.000;2023-05-27T05:24:30;23.20;55.40
27016;DHT22;14557;0.000;0.000;2023-05-27T05:26:56;23.20;55.10
27016;DHT22;14557;0.000;0.000;2023-05-27T05:29:21;23.20;55.00
27016;DHT22;14557;0.000;0.000;2023-05-27T05:31:47;23.20;54.80
27016;DHT22;14557;0.000;0.000;2023-05-27T05:34:12;23.20;54.90
27016;DHT22;14557;0.000;0.000;2023-05-27T05:36:38;23.10;54.80
27016;DHT22;14557;0.000;0.000;2023-05-27T05:39:04;23.10;54.90
27016;DHT22;14557;0.000;0.000;2023-05-27T05:41:29;23.10;54.90
27016;DHT22;14557;0.000;0.000;2023-05-27T05:43:55;23.10;54.90
27016;DHT22;14557;0.000;0.000;2023-05-27T05:46:21;23.10;54.80
27016;DHT22;14557;0.000;0.000;2023-05-27T05:48:46;23.10;54.80
27016;DHT22;14557;0.000;0.000;2023-05-27T05:51:12;23.10;55.30
27016;DHT22;14557;0.000;0.000;2023-05-27T05:53:37;23.00;54.70
27016;DHT22;14557;0.000;0.000;2023-05-27T05:56:03;23.00;54.60
27016;DHT22;14557;0.000;0.000;2023-05-27T05:58:29;23.00;54.60
27016;DHT22;14557;0.000;0.000;2023-05-27T06:00:54;23.00;54.50
27016;DHT22;14557;0.000;0.000;2023-05-27T06:03:20;23.00;54.50
27016;DHT22;14557;0.000;0.000;2023-05-27T06:05:46;23.00;54.40
27016;DHT22;14557;0.000;0.000;2023-05-27T06:08:11;23.00;54.40
27016;DHT22;14557;0.000;0.000;2023-05-27T06:10:37;23.00;54.40
27016;DHT22;14557;0.000;0.000;2023-05-27T06:13:03;23.00;54.40
27016;DHT22;14557;0.000;0.000;2023-05-27T06:15:29;23.00;55.00
27016;DHT22;14557;0.000;0.000;2023-05-27T06:17:54;23.00;54.20
27016;DHT22;14557;0.000;0.000;2023-05-27T06:20:20;23.00;54.20
27016;DHT22;14557;0.000;0.000;2023-05-27T06:22:45;23.00;54.30
27016;DHT22;14557;0.000;0.000;2023-05-27T06:25:14;22.90;57.10
27016;DHT22;14557;0.000;0.000;2023-05-27T06:27:40;23.00;56.80
27016;DHT22;14557;0.000;0.000;2023-05-27T06:30:06;23.00;55.40
27016;DHT22;14557;0.000;0.000;2023-05-27T06:32:32;22.90;55.10
27016;DHT22;14557;0.000;0.000;2023-05-27T06:34:58;23.00;58.90
27016;DHT22;14557;0.000;0.000;2023-05-27T06:37:23;23.00;57.40
27016;DHT22;14557;0.000;0.000;2023-05-27T06:39:49;23.00;57.40
27016;DHT22;14557;0.000;0.000;2023-05-27T06:42:14;23.00;57.10
27016;DHT22;14557;0.000;0.000;2023-05-27T06:44:40;23.00;56.70
27016;DHT22;14557;0.000;0.000;2023-05-27T06:47:06;22.90;56.20
27016;DHT22;14557;0.000;0.000;2023-05-27T06:49:31;22.90;56.10
27016;DHT22;14557;0.000;0.000;2023-05-27T06:51:57;22.90;56.10
27016;DHT22;14557;0.000;0.000;2023-05-27T06:54:22;23.10;63.60
27016;DHT22;14557;0.000;0.000;2023-05-27T06:56:48;23.20;57.20
27016;DHT22;14557;0.000;0.000;2023-05-27T06:59:14;23.30;56.60
27016;DHT22;14557;0.000;0.000;2023-05-27T07:01:39;23.30;56.10
27016;DHT22;14557;0.000;0.000;2023-05-27T07:04:05;23.30;55.40
27016;DHT22;14557;0.000;0.000;2023-05-27T07:06:30;23.20;55.30
27016;DHT22;14557;0.000;0.000;2023-05-27T07:08:56;23.10;55.00
27016;DHT22;14557;0.000;0.000;2023-05-27T07:11:22;23.10;60.20
27016;DHT22;14557;0.000;0.000;2023-05-27T07:13:48;23.20;58.80
27016;DHT22;14557;0.000;0.000;2023-05-27T07:16:13;23.20;56.80
27016;DHT22;14557;0.000;0.000;2023-05-27T07:18:39;23.10;56.20
27016;DHT22;14557;0.000;0.000;2023-05-27T07:21:04;23.10;55.80
27016;DHT22;14557;0.000;0.000;2023-05-27T07:23:33;23.10;55.70
27016;DHT22;14557;0.000;0.000;2023-05-27T07:25:59;23.10;55.90
27016;DHT22;14557;0.000;0.000;2023-05-27T07:28:25;23.20;54.90
27016;DHT22;14557;0.000;0.000;2023-05-27T07:30:50;23.20;54.10
27016;DHT22;14557;0.000;0.000;2023-05-27T07:33:16;23.20;54.40
27016;DHT22;14557;0.000;0.000;2023-05-27T07:35:42;23.20;54.00
27016;DHT22;14557;0.000;0.000;2023-05-27T07:38:07;23.20;55.60
27016;DHT22;14557;0.000;0.000;2023-05-27T07:40:33;23.20;54.90
27016;DHT22;14557;0.000;0.000;2023-05-27T07:42:59;23.20;54.10
27016;DHT22;14557;0.000;0.000;2023-05-27T07:45:24;23.10;54.00
27016;DHT22;14557;0.000;0.000;2023-05-27T07:47:50;23.10;53.80
27016;DHT22;14557;0.000;0.000;2023-05-27T07:50:15;23.10;53.60
27016;DHT22;14557;0.000;0.000;2023-05-27T07:52:41;23.10;53.60
27016;DHT22;14557;0.000;0.000;2023-05-27T07:55:07;23.10;53.60
27016;DHT22;14557;0.000;0.000;2023-05-27T07:57:32;23.10;53.40
27016;DHT22;14557;0.000;0.000;2023-05-27T07:59:58;23.10;53.20
27016;DHT22;14557;0.000;0.000;2023-05-27T08:02:24;23.10;53.20
27016;DHT22;14557;0.000;0.000;2023-05-27T08:04:50;23.10;53.00
27016;DHT22;14557;0.000;0.000;2023-05-27T08:07:16;23.00;53.00
27016;DHT22;14557;0.000;0.000;2023-05-27T08:09:42;23.00;52.80
27016;DHT22;14557;0.000;0.000;2023-05-27T08:12:07;23.00;52.50
27016;DHT22;14557;0.000;0.000;2023-05-27T08:14:34;23.10;56.10
27016;DHT22;14557;0.000;0.000;2023-05-27T08:16:59;23.10;54.60
27016;DHT22;14557;0.000;0.000;2023-05-27T08:19:25;23.10;53.90
27016;DHT22;14557;0.000;0.000;2023-05-27T08:21:50;23.10;53.40
27016;DHT22;14557;0.000;0.000;2023-05-27T08:24:16;23.10;53.00
27016;DHT22;14557;0.000;0.000;2023-05-27T08:26:42;23.10;52.90
27016;DHT22;14557;0.000;0.000;2023-05-27T08:29:08;23.10;52.80
27016;DHT22;14557;0.000;0.000;2023-05-27T08:31:33;23.10;52.60
27016;DHT22;14557;0.000;0.000;2023-05-27T08:33:59;23.00;52.50
27016;DHT22;14557;0.000;0.000;2023-05-27T08:36:25;23.00;52.50
27016;DHT22;14557;0.000;0.000;2023-05-27T08:38:50;23.00;52.50
27016;DHT22;14557;0.000;0.000;2023-05-27T08:41:16;23.00;53.00
27016;DHT22;14557;0.000;0.000;2023-05-27T08:43:42;23.00;52.50
27016;DHT22;14557;0.000;0.000;2023-05-27T08:46:08;23.00;52.40
27016;DHT22;14557;0.000;0.000;2023-05-27T08:48:34;23.00;52.40
27016;DHT22;14557;0.000;0.000;2023-05-27T08:51:00;23.00;52.40
27016;DHT22;14557;0.000;0.000;2023-05-27T08:53:27;23.00;52.40
27016;DHT22;14557;0.000;0.000;2023-05-27T08:55:53;22.90;52.90
27016;DHT22;14557;0.000;0.000;2023-05-27T08:58:19;22.90;52.30
27016;DHT22;14557;0.000;0.000;2023-05-27T09:00:45;22.90;52.30
27016;DHT22;14557;0.000;0.000;2023-05-27T09:03:10;22.90;52.30
27016;DHT22;14557;0.000;0.000;2023-05-27T09:05:36;22.90;52.20
27016;DHT22;14557;0.000;0.000;2023-05-27T09:08:02;22.90;51.90
27016;DHT22;14557;0.000;0.000;2023-05-27T09:10:37;22.90;51.40
27016;DHT22;14557;0.000;0.000;2023-05-27T09:13:03;22.90;51.60
27016;DHT22;14557;0.000;0.000;2023-05-27T09:15:30;22.90;52.10
27016;DHT22;14557;0.000;0.000;2023-05-27T09:17:56;22.90;51.50
27016;DHT22;14557;0.000;0.000;2023-05-27T09:20:25;22.90;51.80
27016;DHT22;14557;0.000;0.000;2023-05-27T09:22:55;22.90;52.50
27016;DHT22;14557;0.000;0.000;2023-05-27T09:25:23;22.90;52.00
27016;DHT22;14557;0.000;0.000;2023-05-27T09:27:48;22.90;51.80
27016;DHT22;14557;0.000;0.000;2023-05-27T09:30:14;22.90;51.80
27016;DHT22;14557;0.000;0.000;2023-05-27T09:32:41;22.90;51.80
27016;DHT22;14557;0.000;0.000;2023-05-27T09:35:07;22.90;51.90
27016;DHT22;14557;0.000;0.000;2023-05-27T09:37:36;22.90;52.00
27016;DHT22;14557;0.000;0.000;2023-05-27T09:40:06;22.90;52.10
27016;DHT22;14557;0.000;0.000;2023-05-27T09:42:45;22.90;51.70
27016;DHT22;14557;0.000;0.000;2023-05-27T09:45:18;22.90;52.30
27016;DHT22;14557;0.000;0.000;2023-05-27T09:47:47;22.90;51.80
27016;DHT22;14557;0.000;0.000;2023-05-27T09:50:13;23.00;52.00
27016;DHT22;14557;0.000;0.000;2023-05-27T09:52:45;23.00;51.90
27016;DHT22;14557;0.000;0.000;2023-05-27T09:55:12;23.10;52.00
27016;DHT22;14557;0.000;0.000;2023-05-27T09:57:38;23.20;51.90
27016;DHT22;14557;0.000;0.000;2023-05-27T10:00:05;23.20;51.70
27016;DHT22;14557;0.000;0.000;2023-05-27T10:02:44;23.40;51.10
27016;DHT22;14557;0.000;0.000;2023-05-27T10:05:11;23.50;51.00
27016;DHT22;14557;0.000;0.000;2023-05-27T10:07:38;23.50;50.90
27016;DHT22;14557;0.000;0.000;2023-05-27T10:10:07;23.40;51.20
27016;DHT22;14557;0.000;0.000;2023-05-27T10:12:34;23.40;51.40
27016;DHT22;14557;0.000;0.000;2023-05-27T10:15:00;23.30;51.70
27016;DHT22;14557;0.000;0.000;2023-05-27T10:17:26;23.30;51.90
27016;DHT22;14557;0.000;0.000;2023-05-27T10:19:55;23.20;52.00
27016;DHT22;14557;0.000;0.000;2023-05-27T10:22:21;23.20;52.10
27016;DHT22;14557;0.000;0.000;2023-05-27T10:24:47;23.20;52.10
27016;DHT22;14557;0.000;0.000;2023-05-27T10:27:18;23.20;52.20
27016;DHT22;14557;0.000;0.000;2023-05-27T10:29:43;23.20;52.20
27016;DHT22;14557;0.000;0.000;2023-05-27T10:32:09;23.10;52.10
27016;DHT22;14557;0.000;0.000;2023-05-27T10:34:36;23.20;51.90
27016;DHT22;14557;0.000;0.000;2023-05-27T10:37:01;23.10;52.10
27016;DHT22;14557;0.000;0.000;2023-05-27T10:39:27;23.20;51.80
27016;DHT22;14557;0.000;0.000;2023-05-27T10:41:53;23.20;51.70
27016;DHT22;14557;0.000;0.000;2023-05-27T10:44:25;23.20;51.60
27016;DHT22;14557;0.000;0.000;2023-05-27T10:46:58;23.20;51.60
27016;DHT22;14557;0.000;0.000;2023-05-27T10:49:24;23.20;51.50
27016;DHT22;14557;0.000;0.000;2023-05-27T10:51:50;23.30;51.60
27016;DHT22;14557;0.000;0.000;2023-05-27T10:54:17;23.30;51.30
27016;DHT22;14557;0.000;0.000;2023-05-27T10:56:49;23.30;51.10
27016;DHT22;14557;0.000;0.000;2023-05-27T10:59:18;23.30;50.90
27016;DHT22;14557;0.000;0.000;2023-05-27T11:01:45;23.30;50.60
27016;DHT22;14557;0.000;0.000;2023-05-27T11:04:11;23.30;50.70
27016;DHT22;14557;0.000;0.000;2023-05-27T11:06:37;23.30;50.20
27016;DHT22;14557;0.000;0.000;2023-05-27T11:09:03;23.20;51.00
27016;DHT22;14557;0.000;0.000;2023-05-27T11:11:29;23.20;50.40
27016;DHT22;14557;0.000;0.000;2023-05-27T11:13:55;23.20;50.00
27016;DHT22;14557;0.000;0.000;2023-05-27T11:16:20;23.20;50.00
27016;DHT22;14557;0.000;0.000;2023-05-27T11:18:46;23.20;50.40
27016;DHT22;14557;0.000;0.000;2023-05-27T11:21:13;23.10;50.20
27016;DHT22;14557;0.000;0.000;2023-05-27T11:23:42;23.20;50.00
27016;DHT22;14557;0.000;0.000;2023-05-27T11:26:42;23.20;51.10
27016;DHT22;14557;0.000;0.000;2023-05-27T11:29:00;23.10;50.90
27016;DHT22;14557;0.000;0.000;2023-05-27T11:31:27;23.10;49.80
27016;DHT22;14557;0.000;0.000;2023-05-27T11:33:53;23.10;53.40
27016;DHT22;14557;0.000;0.000;2023-05-27T11:36:19;23.20;57.70
27016;DHT22;14557;0.000;0.000;2023-05-27T11:41:15;23.20;52.10
27016;DHT22;14557;0.000;0.000;2023-05-27T11:43:50;23.20;51.40
27016;DHT22;14557;0.000;0.000;2023-05-27T11:46:16;23.20;51.00
27016;DHT22;14557;0.000;0.000;2023-05-27T11:48:42;23.20;50.80
27016;DHT22;14557;0.000;0.000;2023-05-27T11:51:08;23.20;50.70
27016;DHT22;14557;0.000;0.000;2023-05-27T11:53:35;23.20;50.30
27016;DHT22;14557;0.000;0.000;2023-05-27T11:56:00;23.20;50.10
27016;DHT22;14557;0.000;0.000;2023-05-27T11:58:26;23.20;53.10
27016;DHT22;14557;0.000;0.000;2023-05-27T12:00:51;23.20;75.70
27016;DHT22;14557;0.000;0.000;2023-05-27T12:03:17;23.30;68.80
27016;DHT22;14557;0.000;0.000;2023-05-27T12:05:43;23.30;59.60
27016;DHT22;14557;0.000;0.000;2023-05-27T12:08:08;23.30;57.00
27016;DHT22;14557;0.000;0.000;2023-05-27T12:10:34;23.30;55.90
27016;DHT22;14557;0.000;0.000;2023-05-27T12:13:03;23.30;53.50
27016;DHT22;14557;0.000;0.000;2023-05-27T12:15:29;23.30;52.80
27016;DHT22;14557;0.000;0.000;2023-05-27T12:17:55;23.20;52.30
27016;DHT22;14557;0.000;0.000;2023-05-27T12:20:20;23.20;51.70
27016;DHT22;14557;0.000;0.000;2023-05-27T12:22:46;23.20;51.40
27016;DHT22;14557;0.000;0.000;2023-05-27T12:25:12;23.20;51.60
27016;DHT22;14557;0.000;0.000;2023-05-27T12:27:37;23.10;50.90
27016;DHT22;14557;0.000;0.000;2023-05-27T12:30:03;23.10;50.60
27016;DHT22;14557;0.000;0.000;2023-05-27T12:32:29;23.10;50.90
27016;DHT22;14557;0.000;0.000;2023-05-27T12:34:55;23.10;50.60
27016;DHT22;14557;0.000;0.000;2023-05-27T12:37:20;23.00;50.40
27016;DHT22;14557;0.000;0.000;2023-05-27T12:39:46;23.10;50.30
27016;DHT22;14557;0.000;0.000;2023-05-27T12:42:11;23.00;50.10
27016;DHT22;14557;0.000;0.000;2023-05-27T12:44:37;23.00;50.00
27016;DHT22;14557;0.000;0.000;2023-05-27T12:47:02;23.00;50.00
27016;DHT22;14557;0.000;0.000;2023-05-27T12:49:28;23.00;50.40
27016;DHT22;14557;0.000;0.000;2023-05-27T12:51:53;22.90;50.10
27016;DHT22;14557;0.000;0.000;2023-05-27T12:54:19;23.00;49.90
27016;DHT22;14557;0.000;0.000;2023-05-27T12:56:45;22.90;49.90
27016;DHT22;14557;0.000;0.000;2023-05-27T12:59:10;22.90;49.80
27016;DHT22;14557;0.000;0.000;2023-05-27T13:01:36;22.90;49.60
27016;DHT22;14557;0.000;0.000;2023-05-27T13:04:01;22.90;49.60
27016;DHT22;14557;0.000;0.000;2023-05-27T13:06:27;22.90;49.60
27016;DHT22;14557;0.000;0.000;2023-05-27T13:08:53;22.90;49.70
27016;DHT22;14557;0.000;0.000;2023-05-27T13:11:18;22.90;49.80
27016;DHT22;14557;0.000;0.000;2023-05-27T13:13:44;22.90;49.70
27016;DHT22;14557;0.000;0.000;2023-05-27T13:16:10;22.90;49.70
27016;DHT22;14557;0.000;0.000;2023-05-27T13:18:36;22.90;49.80
27016;DHT22;14557;0.000;0.000;2023-05-27T13:21:02;22.90;49.70
27016;DHT22;14557;0.000;0.000;2023-05-27T13:23:28;22.80;49.60
27016;DHT22;14557;0.000;0.000;2023-05-27T13:25:54;22.80;49.60
27016;DHT22;14557;0.000;0.000;2023-05-27T13:28:20;22.80;49.70
27016;DHT22;14557;0.000;0.000;2023-05-27T13:30:45;22.80;49.70
27016;DHT22;14557;0.000;0.000;2023-05-27T13:33:11;22.80;49.80
27016;DHT22;14557;0.000;0.000;2023-05-27T13:35:37;22.80;49.90
27016;DHT22;14557;0.000;0.000;2023-05-27T13:38:02;22.80;49.90
27016;DHT22;14557;0.000;0.000;2023-05-27T13:40:28;22.80;49.70
27016;DHT22;14557;0.000;0.000;2023-05-27T13:42:55;22.80;49.80
27016;DHT22;14557;0.000;0.000;2023-05-27T13:45:20;22.80;49.80
27016;DHT22;14557;0.000;0.000;2023-05-27T13:47:46;22.80;49.80
27016;DHT22;14557;0.000;0.000;2023-05-27T13:50:11;22.80;49.90
27016;DHT22;14557;0.000;0.000;2023-05-27T13:52:37;22.80;49.80
27016;DHT22;14557;0.000;0.000;2023-05-27T13:55:03;22.80;49.70
27016;DHT22;14557;0.000;0.000;2023-05-27T13:57:28;22.70;49.70
27016;DHT22;14557;0.000;0.000;2023-05-27T13:59:54;22.70;49.80
27016;DHT22;14557;0.000;0.000;2023-05-27T14:02:20;22.70;49.70
27016;DHT22;14557;0.000;0.000;2023-05-27T14:04:45;22.70;49.70
27016;DHT22;14557;0.000;0.000;2023-05-27T14:07:11;22.70;51.00
27016;DHT22;14557;0.000;0.000;2023-05-27T14:09:37;22.70;49.50
27016;DHT22;14557;0.000;0.000;2023-05-27T14:12:02;22.70;50.00
27016;DHT22;14557;0.000;0.000;2023-05-27T14:14:28;22.70;49.90
27016;DHT22;14557;0.000;0.000;2023-05-27T14:16:54;22.70;49.80
27016;DHT22;14557;0.000;0.000;2023-05-27T14:19:20;22.70;49.80
27016;DHT22;14557;0.000;0.000;2023-05-27T14:21:46;22.70;49.70
27016;DHT22;14557;0.000;0.000;2023-05-27T14:24:12;22.70;49.70
27016;DHT22;14557;0.000;0.000;2023-05-27T14:26:38;22.70;49.80
27016;DHT22;14557;0.000;0.000;2023-05-27T14:29:03;22.70;49.80
27016;DHT22;14557;0.000;0.000;2023-05-27T14:31:29;22.70;50.40
27016;DHT22;14557;0.000;0.000;2023-05-27T14:33:55;22.70;50.00
27016;DHT22;14557;0.000;0.000;2023-05-27T14:36:20;22.70;49.90
27016;DHT22;14557;0.000;0.000;2023-05-27T14:38:46;22.70;50.00
27016;DHT22;14557;0.000;0.000;2023-05-27T14:41:11;22.70;50.10
27016;DHT22;14557;0.000;0.000;2023-05-27T14:43:37;22.70;50.10
27016;DHT22;14557;0.000;0.000;2023-05-27T14:46:03;22.70;50.00
27016;DHT22;14557;0.000;0.000;2023-05-27T14:48:28;22.70;49.90
27016;DHT22;14557;0.000;0.000;2023-05-27T14:50:54;22.70;50.00
27016;DHT22;14557;0.000;0.000;2023-05-27T14:53:19;22.70;49.70
27016;DHT22;14557;0.000;0.000;2023-05-27T14:55:45;22.70;49.80
27016;DHT22;14557;0.000;0.000;2023-05-27T14:58:11;22.60;49.70
27016;DHT22;14557;0.000;0.000;2023-05-27T15:00:36;22.60;49.60
27016;DHT22;14557;0.000;0.000;2023-05-27T15:03:02;22.60;49.70
27016;DHT22;14557;0.000;0.000;2023-05-27T15:05:28;22.60;49.70
27016;DHT22;14557;0.000;0.000;2023-05-27T15:07:53;22.60;49.50
27016;DHT22;14557;0.000;0.000;2023-05-27T15:10:19;22.60;49.40
27016;DHT22;14557;0.000;0.000;2023-05-27T15:12:45;22.70;49.30
27016;DHT22;14557;0.000;0.000;2023-05-27T15:15:15;22.70;49.20
27016;DHT22;14557;0.000;0.000;2023-05-27T15:17:41;22.70;49.10
27016;DHT22;14557;0.000;0.000;2023-05-27T15:20:09;22.70;49.00
27016;DHT22;14557;0.000;0.000;2023-05-27T15:22:36;22.70;49.00
27016;DHT22;14557;0.000;0.000;2023-05-27T15:25:01;22.70;48.90
27016;DHT22;14557;0.000;0.000;2023-05-27T15:27:27;22.70;48.80
27016;DHT22;14557;0.000;0.000;2023-05-27T15:29:52;22.70;48.80
27016;DHT22;14557;0.000;0.000;2023-05-27T15:32:18;22.70;48.70
27016;DHT22;14557;0.000;0.000;2023-05-27T15:34:44;22.70;48.80
27016;DHT22;14557;0.000;0.000;2023-05-27T15:37:09;22.70;48.80
27016;DHT22;14557;0.000;0.000;2023-05-27T15:39:36;22.70;49.00
27016;DHT22;14557;0.000;0.000;2023-05-27T15:42:01;22.70;49.00
27016;DHT22;14557;0.000;0.000;2023-05-27T15:44:27;22.70;49.00
27016;DHT22;14557;0.000;0.000;2023-05-27T15:46:52;22.70;49.00